createdAt,value
2023-05-12T00:00:41.203Z,1.6
2023-05-12T00:15:58.898Z,1.4
2023-05-12T00:30:41.290Z,1.5
2023-05-12T00:45:43.071Z,2.1
2023-05-12T01:01:26.692Z,1.7
2023-05-12T01:16:30.490Z,2.1
2023-05-12T01:31:30.729Z,1.5
2023-05-12T01:46:28.521Z,2.7
2023-05-12T02:01:28.888Z,6.9
2023-05-12T02:16:38.943Z,4.7
2023-05-12T02:31:30.494Z,3.2
2023-05-12T02:46:33.221Z,6.9
2023-05-12T03:01:32.356Z,4.5
2023-05-12T03:16:33.454Z,7.9
2023-05-12T03:31:45.802Z,7.1
2023-05-12T04:14:43.534Z,7
2023-05-12T04:21:09.578Z,5.7
2023-05-12T04:35:44.125Z,8.1
2023-05-12T04:50:43.071Z,7.3
2023-05-12T05:05:46.937Z,8.7
2023-05-12T05:20:58.195Z,7.1
2023-05-12T05:35:45.599Z,8.7
2023-05-12T05:50:45.890Z,9
2023-05-12T06:05:49.352Z,9
2023-05-12T07:35:54.490Z,2.2
2023-05-12T07:51:08.806Z,2.8
2023-05-12T08:20:59.412Z,1.3
2023-05-12T08:35:58.653Z,0.9
2023-05-12T09:20:36.131Z,0.6
2023-05-12T10:51:06.336Z,1
2023-05-12T11:06:06.872Z,0.5
2023-05-12T11:21:05.355Z,0.7
2023-05-12T11:36:34.439Z,1.1
2023-05-12T12:06:06.819Z,0.9
2023-05-12T12:21:36.645Z,1
2023-05-12T12:36:07.549Z,0.6
2023-05-12T12:51:08.260Z,1
2023-05-12T13:06:09.408Z,1.4
2023-05-12T13:21:10.082Z,0.2
2023-05-12T13:36:09.906Z,0.3
2023-05-12T13:51:10.837Z,0.4
2023-05-12T14:06:11.731Z,2.1
2023-05-12T14:21:12.263Z,0.4
2023-05-12T14:36:13.078Z,1.5
2023-05-12T14:51:13.781Z,0.5
2023-05-12T15:06:16.634Z,1.4
2023-05-12T15:21:14.675Z,0.9
2023-05-12T15:36:14.959Z,1.1
2023-05-12T15:51:15.897Z,1.1
2023-05-12T16:06:17.524Z,1.1
2023-05-12T16:21:17.129Z,1.8
2023-05-12T16:36:20.005Z,3.5
2023-05-12T16:51:22.191Z,2.3
2023-05-12T17:06:19.768Z,3.5
2023-05-12T17:21:22.679Z,3.1
2023-05-12T17:36:21.101Z,4.8
2023-05-12T17:51:21.539Z,1.1
2023-05-12T18:06:22.270Z,2.4
2023-05-12T18:21:24.109Z,2.5
2023-05-12T18:36:25.296Z,4.4
2023-05-12T18:51:24.075Z,5.2
2023-05-12T19:06:24.175Z,5.5
2023-05-12T19:21:24.949Z,6.2
2023-05-12T19:36:26.283Z,6.8
2023-05-12T19:51:26.282Z,6.8
2023-05-12T20:06:26.806Z,10.2
2023-05-12T20:21:27.854Z,8.2
2023-05-12T20:36:27.607Z,8.9
2023-05-12T20:51:28.895Z,9.6
2023-05-12T21:06:30.887Z,11.1
2023-05-12T21:21:31.540Z,10.3
2023-05-12T21:36:29.823Z,10.6
2023-05-12T21:51:30.748Z,12.4
2023-05-12T22:00:38.515Z,11.9
2023-05-12T22:15:37.924Z,13.9
2023-05-12T22:30:37.903Z,14
2023-05-12T22:45:39.110Z,14.1
2023-05-12T23:00:39.902Z,13.7
2023-05-12T23:15:40.077Z,13.6
2023-05-12T23:30:50.024Z,13.5
2023-05-12T23:45:41.398Z,14.1
